Time;durP1;ratioP1;P1;durP2;ratioP2;P2;SDS_P1;SDS_P2;PMS_P1;PMS_P2;Temp;Humidity;BMP_temperature;BMP_pressure;BME280_temperature;BME280_humidity;BME280_pressure;Samples;Min_cycle;Max_cycle;Signal;HPM_P1;HPM_P2
2022/01/04 00:00:28;;;;;;;13.70;9.40;;;8.10;99.90;;;;;;5092119;28;20323;-77
2022/01/04 00:02:56;;;;;;;14.33;9.40;;;8.00;99.90;;;;;;5092491;28;20205;-77
2022/01/04 00:05:23;;;;;;;14.03;9.10;;;8.00;99.90;;;;;;5092363;28;20665;-76
2022/01/04 00:07:50;;;;;;;13.67;9.40;;;7.90;99.90;;;;;;5092112;28;20615;-76
2022/01/04 00:10:22;;;;;;;13.17;9.37;;;7.80;99.90;;;;;;5092309;28;20202;-77
2022/01/04 00:15:34;;;;;;;12.03;7.90;;;7.90;99.90;;;;;;5091805;28;20567;-76
2022/01/04 00:18:01;;;;;;;11.67;8.63;;;7.90;99.90;;;;;;5091929;28;20239;-76
2022/01/04 00:20:28;;;;;;;15.37;8.77;;;7.80;99.90;;;;;;5091714;28;20555;-75
2022/01/04 00:22:55;;;;;;;11.87;9.73;;;7.80;99.90;;;;;;5092195;28;20209;-76
2022/01/04 00:25:23;;;;;;;14.23;10.97;;;7.80;99.90;;;;;;5092327;28;20664;-76
2022/01/04 00:27:50;;;;;;;11.87;9.40;;;7.80;99.90;;;;;;5092111;28;20209;-77
2022/01/04 00:30:17;;;;;;;14.53;8.77;;;7.70;99.90;;;;;;5091907;28;20201;-77
2022/01/04 00:32:44;;;;;;;21.73;10.07;;;7.60;99.90;;;;;;5091473;28;20205;-77
2022/01/04 00:35:12;;;;;;;14.50;8.90;;;7.60;99.90;;;;;;5091676;28;20258;-78
2022/01/04 00:37:39;;;;;;;14.63;8.77;;;7.60;99.90;;;;;;5091408;28;20225;-75
2022/01/04 00:40:07;;;;;;;11.80;8.77;;;7.60;99.90;;;;;;5091706;28;20270;-76
2022/01/04 00:42:35;;;;;;;17.93;9.27;;;7.60;99.90;;;;;;5091099;28;20205;-77
2022/01/04 00:45:03;;;;;;;14.50;10.47;;;7.60;99.90;;;;;;5091450;28;20213;-76
2022/01/04 00:47:42;;;;;;;9.57;8.00;;;7.60;99.90;;;;;;5091458;28;20628;-76
2022/01/04 00:50:08;;;;;;;12.50;10.20;;;7.50;99.90;;;;;;5091599;28;20205;-75
2022/01/04 00:52:35;;;;;;;14.80;9.67;;;7.50;99.90;;;;;;5091263;28;20208;-75
2022/01/04 00:55:03;;;;;;;16.13;10.10;;;7.50;99.90;;;;;;5091478;28;20201;-76
2022/01/04 00:57:30;;;;;;;20.27;11.13;;;7.40;99.90;;;;;;5090728;28;20310;-75
2022/01/04 00:59:58;;;;;;;20.80;11.77;;;7.40;99.90;;;;;;5091350;28;20205;-76
2022/01/04 01:02:25;;;;;;;16.13;11.03;;;7.30;99.90;;;;;;5091195;28;20205;-74
2022/01/04 01:04:52;;;;;;;20.03;10.97;;;7.30;99.90;;;;;;5091700;28;20197;-75
2022/01/04 01:07:19;;;;;;;14.77;10.80;;;7.40;99.90;;;;;;5091591;28;20239;-76
2022/01/04 01:10:01;;;;;;;15.47;11.73;;;7.40;99.90;;;;;;5090835;28;20202;-75
2022/01/04 01:12:28;;;;;;;13.47;9.73;;;7.40;99.90;;;;;;5090619;28;20209;-74
2022/01/04 01:14:55;;;;;;;16.13;10.47;;;7.40;99.90;;;;;;5091326;28;20258;-75
2022/01/04 01:17:23;;;;;;;12.63;10.20;;;7.40;99.90;;;;;;5090867;28;20206;-76
2022/01/04 01:19:51;;;;;;;18.83;12.03;;;7.30;99.90;;;;;;5091076;28;20201;-75
2022/01/04 01:22:18;;;;;;;14.73;11.63;;;7.30;99.90;;;;;;5091149;28;20253;-75
2022/01/04 01:24:45;;;;;;;15.77;11.10;;;7.20;99.90;;;;;;5090561;28;20206;-75
2022/01/04 01:27:12;;;;;;;17.37;10.73;;;7.20;99.90;;;;;;5091028;28;20254;-77
2022/01/04 01:29:39;;;;;;;16.63;10.00;;;7.20;99.90;;;;;;5090660;28;20202;-80
2022/01/04 01:32:07;;;;;;;15.70;10.57;;;7.20;99.90;;;;;;5091147;28;20205;-76
2022/01/04 01:34:35;;;;;;;14.57;10.27;;;7.20;99.90;;;;;;5090739;28;20205;-79
2022/01/04 01:37:02;;;;;;;15.53;10.50;;;7.20;99.90;;;;;;5090794;28;20221;-79
2022/01/04 01:39:29;;;;;;;12.70;8.70;;;7.20;99.90;;;;;;5071917;28;20264;-80
2022/01/04 01:41:56;;;;;;;13.77;8.33;;;7.10;99.90;;;;;;5070968;28;20202;-77
2022/01/04 01:44:24;;;;;;;13.60;9.00;;;7.10;99.90;;;;;;5070814;28;20214;-80
2022/01/04 01:46:51;;;;;;;17.03;10.27;;;7.10;99.90;;;;;;5071163;28;20256;-77
2022/01/04 01:49:18;;;;;;;11.20;8.77;;;7.10;99.90;;;;;;5070845;28;20206;-76
2022/01/04 01:51:47;;;;;;;11.77;8.33;;;7.00;99.90;;;;;;5070231;28;20256;-76
2022/01/04 01:54:14;;;;;;;13.80;8.40;;;7.00;99.90;;;;;;5070274;28;20674;-76
2022/01/04 01:56:42;;;;;;;16.37;8.93;;;7.00;99.90;;;;;;5070445;28;20267;-78
2022/01/04 01:59:09;;;;;;;17.53;9.93;;;7.00;99.90;;;;;;5070508;28;20724;-76
2022/01/04 02:01:36;;;;;;;11.03;7.70;;;6.90;99.90;;;;;;5070168;28;20207;-77
2022/01/04 02:04:03;;;;;;;9.63;8.10;;;7.00;99.90;;;;;;5070548;28;20210;-76
2022/01/04 02:06:31;;;;;;;12.73;7.80;;;6.90;99.90;;;;;;5070122;28;20206;-76
2022/01/04 02:09:01;;;;;;;12.33;7.50;;;7.00;99.90;;;;;;5070449;28;20248;-76
2022/01/04 02:11:29;;;;;;;12.83;8.77;;;7.00;99.90;;;;;;5069906;28;20203;-76
2022/01/04 02:13:56;;;;;;;13.57;10.93;;;6.90;99.90;;;;;;5070398;28;20202;-76
2022/01/04 02:16:25;;;;;;;14.63;9.57;;;6.90;99.90;;;;;;5070590;28;20202;-76
2022/01/04 02:18:52;;;;;;;13.40;8.53;;;6.90;99.90;;;;;;5070653;28;20230;-77
2022/01/04 02:21:20;;;;;;;12.77;8.73;;;6.80;99.90;;;;;;5070567;28;20614;-77
2022/01/04 02:23:47;;;;;;;14.43;8.80;;;6.90;99.90;;;;;;5069744;28;20263;-75
2022/01/04 02:26:14;;;;;;;12.60;8.90;;;6.80;99.90;;;;;;5070274;28;20256;-75
2022/01/04 02:28:42;;;;;;;15.20;8.30;;;6.80;99.90;;;;;;5069873;28;20222;-75
2022/01/04 02:31:09;;;;;;;9.30;7.77;;;6.80;99.90;;;;;;5073717;28;20272;-77
2022/01/04 02:33:36;;;;;;;9.43;6.77;;;6.90;99.90;;;;;;5073615;28;20206;-80
2022/01/04 02:36:04;;;;;;;9.33;4.77;;;6.90;99.90;;;;;;5074174;28;20332;-76
2022/01/04 02:38:33;;;;;;;9.27;5.87;;;7.00;99.90;;;;;;5073375;28;20233;-79
2022/01/04 02:41:00;;;;;;;7.63;5.00;;;7.00;99.90;;;;;;5073764;28;20245;-77
2022/01/04 02:43:27;;;;;;;9.33;5.13;;;7.00;99.90;;;;;;5073175;28;20263;-75
2022/01/04 02:45:54;;;;;;;10.00;4.37;;;7.10;99.90;;;;;;5073646;28;20279;-76
2022/01/04 02:48:22;;;;;;;8.90;5.40;;;7.10;99.90;;;;;;5074067;28;20263;-76
2022/01/04 02:50:50;;;;;;;9.43;4.83;;;7.00;96.80;;;;;;5073537;28;20564;-78
2022/01/04 02:53:17;;;;;;;7.70;5.17;;;6.90;99.90;;;;;;5073489;28;20248;-76
2022/01/04 02:55:46;;;;;;;7.10;5.03;;;6.80;99.90;;;;;;5073263;28;20279;-75
2022/01/04 02:58:13;;;;;;;6.97;5.10;;;6.80;99.90;;;;;;5073314;28;20240;-75
2022/01/04 03:00:40;;;;;;;6.67;5.77;;;6.80;99.90;;;;;;5072879;28;20206;-77
2022/01/04 03:03:07;;;;;;;10.17;5.53;;;6.80;99.90;;;;;;5073439;28;20206;-74
2022/01/04 03:05:34;;;;;;;6.60;5.83;;;6.80;99.90;;;;;;5073052;28;20206;-76
2022/01/04 03:08:01;;;;;;;7.50;4.73;;;6.70;99.90;;;;;;5073342;28;20792;-75
2022/01/04 03:10:28;;;;;;;10.10;5.33;;;6.80;99.90;;;;;;5072911;28;20590;-75
2022/01/04 03:12:57;;;;;;;9.07;5.60;;;6.80;99.90;;;;;;5072925;28;20247;-75
2022/01/04 03:15:24;;;;;;;11.47;6.03;;;6.80;99.90;;;;;;5073422;28;20215;-75
2022/01/04 03:17:51;;;;;;;8.37;4.87;;;6.80;99.90;;;;;;5073440;28;20247;-75
2022/01/04 03:20:18;;;;;;;6.23;4.50;;;6.70;99.90;;;;;;5073170;28;20202;-75
2022/01/04 03:22:45;;;;;;;8.37;5.53;;;6.80;99.90;;;;;;5072451;28;20640;-74
2022/01/04 03:25:12;;;;;;;9.40;4.37;;;6.80;99.90;;;;;;5072727;28;20255;-74
2022/01/04 03:27:39;;;;;;;13.27;5.67;;;6.80;99.90;;;;;;5072397;28;20289;-74
2022/01/04 03:30:09;;;;;;;7.13;3.93;;;6.80;99.90;;;;;;5072966;28;20214;-74
2022/01/04 03:32:37;;;;;;;8.80;5.70;;;7.00;99.90;;;;;;5072607;28;20202;-74
2022/01/04 03:35:05;;;;;;;7.13;4.90;;;6.90;99.90;;;;;;5072742;28;20203;-75
2022/01/04 03:37:32;;;;;;;6.80;5.40;;;6.90;99.90;;;;;;5071961;28;20210;-75
2022/01/04 03:39:59;;;;;;;8.07;4.23;;;6.90;99.90;;;;;;5072502;28;20717;-74
2022/01/04 03:42:26;;;;;;;7.73;5.00;;;6.90;99.90;;;;;;5071205;28;20198;-76
2022/01/04 03:44:53;;;;;;;8.47;5.07;;;7.00;99.90;;;;;;5072740;28;20641;-76
2022/01/04 03:47:21;;;;;;;7.93;4.50;;;6.90;99.90;;;;;;5072747;28;20206;-77
2022/01/04 03:49:48;;;;;;;7.10;4.30;;;6.90;99.90;;;;;;5072307;28;20575;-77
2022/01/04 03:52:15;;;;;;;7.60;4.53;;;6.90;99.90;;;;;;5072222;28;20670;-77
2022/01/04 03:54:42;;;;;;;8.97;4.50;;;6.90;99.90;;;;;;5071978;28;20285;-77
2022/01/04 03:57:09;;;;;;;6.43;4.67;;;6.90;99.90;;;;;;5072600;28;20339;-77
2022/01/04 03:59:36;;;;;;;10.77;4.97;;;6.90;99.90;;;;;;5072049;28;20234;-76
2022/01/04 04:02:04;;;;;;;7.37;3.67;;;6.90;99.90;;;;;;5072307;28;20259;-76
2022/01/04 04:04:32;;;;;;;7.83;5.10;;;7.00;99.90;;;;;;5071684;28;20210;-77
2022/01/04 04:06:59;;;;;;;9.37;4.17;;;7.00;99.90;;;;;;5072179;28;20206;-77
2022/01/04 04:09:26;;;;;;;10.13;4.93;;;7.00;99.90;;;;;;5071666;28;20256;-77
2022/01/04 04:11:53;;;;;;;7.23;5.20;;;6.90;99.90;;;;;;5072288;28;20259;-77
2022/01/04 04:14:20;;;;;;;8.33;5.20;;;6.80;99.90;;;;;;5072195;28;20665;-76
2022/01/04 04:16:47;;;;;;;11.00;5.00;;;6.80;99.90;;;;;;5071575;28;20255;-76
2022/01/04 04:19:14;;;;;;;8.13;4.97;;;6.70;99.90;;;;;;5071709;28;20321;-76
2022/01/04 04:21:42;;;;;;;10.27;5.13;;;6.70;99.90;;;;;;5071480;28;20202;-74
2022/01/04 04:24:09;;;;;;;11.27;6.37;;;6.60;99.90;;;;;;5071876;28;20210;-74
2022/01/04 04:26:36;;;;;;;9.47;5.33;;;6.60;99.90;;;;;;5071544;28;20202;-74
2022/01/04 04:29:03;;;;;;;7.20;6.23;;;6.60;99.90;;;;;;5071790;28;20272;-76
2022/01/04 04:31:30;;;;;;;8.37;5.33;;;6.70;99.90;;;;;;5071351;28;20206;-75
2022/01/04 04:33:57;;;;;;;9.37;5.77;;;6.60;99.90;;;;;;5071456;28;20202;-76
2022/01/04 04:36:27;;;;;;;6.97;5.10;;;6.50;99.90;;;;;;5071393;28;20268;-74
2022/01/04 04:38:55;;;;;;;10.47;5.27;;;6.50;99.90;;;;;;5071422;28;20327;-75
2022/01/04 04:41:22;;;;;;;7.93;4.77;;;6.50;99.90;;;;;;5071912;28;20198;-75
2022/01/04 04:43:54;;;;;;;7.40;5.07;;;6.40;99.90;;;;;;5071465;28;20218;-79
2022/01/04 04:46:21;;;;;;;7.70;5.03;;;6.40;99.90;;;;;;5071714;28;20233;-77
2022/01/04 04:48:48;;;;;;;10.87;4.57;;;6.40;99.90;;;;;;5070628;28;20743;-77
2022/01/04 04:51:15;;;;;;;7.90;5.30;;;6.40;99.90;;;;;;5071588;28;20629;-77
2022/01/04 04:53:42;;;;;;;12.67;6.10;;;6.40;99.90;;;;;;5070847;28;20202;-77
2022/01/04 04:56:10;;;;;;;9.37;5.20;;;6.20;99.90;;;;;;5071409;28;20263;-77
2022/01/04 04:58:37;;;;;;;7.10;4.73;;;6.30;1.00;;;;;;5070962;28;20335;-77
2022/01/04 05:01:04;;;;;;;7.90;5.30;;;6.30;1.00;;;;;;5071020;28;20251;-77
2022/01/04 05:03:31;;;;;;;9.50;5.90;;;6.30;99.90;;;;;;5070666;28;20247;-77
2022/01/04 05:05:58;;;;;;;9.47;4.53;;;6.30;99.90;;;;;;5071095;28;20619;-77
2022/01/04 05:08:25;;;;;;;6.83;5.00;;;6.30;99.90;;;;;;5070991;28;20202;-77
2022/01/04 05:10:55;;;;;;;7.10;4.37;;;6.30;99.90;;;;;;5071516;28;20206;-77
2022/01/04 05:13:23;;;;;;;6.93;5.23;;;6.30;99.90;;;;;;5071311;28;20241;-76
2022/01/04 05:15:50;;;;;;;10.00;5.07;;;6.30;99.90;;;;;;5071312;28;20202;-75
2022/01/04 05:18:17;;;;;;;8.60;5.43;;;6.40;99.90;;;;;;5070969;28;20262;-76
2022/01/04 05:20:44;;;;;;;8.30;5.03;;;6.80;99.90;;;;;;5070634;28;20648;-76
2022/01/04 05:23:11;;;;;;;4.80;3.93;;;6.80;99.90;;;;;;5071108;28;20631;-76
2022/01/04 05:25:38;;;;;;;9.13;4.77;;;6.80;99.90;;;;;;5070516;28;20259;-75
2022/01/04 05:28:05;;;;;;;7.90;4.80;;;6.90;99.90;;;;;;5070886;28;20202;-76
2022/01/04 05:30:34;;;;;;;6.97;4.57;;;7.10;1.00;;;;;;5070267;28;20202;-76
2022/01/04 05:33:01;;;;;;;7.47;4.63;;;7.10;99.90;;;;;;5070370;28;20202;-75
2022/01/04 05:35:28;;;;;;;7.50;5.50;;;7.10;1.00;;;;;;5070297;28;20260;-76
2022/01/04 05:37:55;;;;;;;6.53;4.90;;;7.40;1.00;;;;;;5070732;28;20347;-75
2022/01/04 05:40:22;;;;;;;7.20;5.13;;;7.70;1.00;;;;;;5070900;28;20763;-76
2022/01/04 05:42:49;;;;;;;7.30;4.70;;;7.90;99.90;;;;;;5070539;28;20206;-76
2022/01/04 05:45:16;;;;;;;7.03;5.53;;;7.80;99.90;;;;;;5070229;28;20213;-76
2022/01/04 05:47:44;;;;;;;8.00;4.17;;;7.70;99.90;;;;;;5070136;28;20669;-76
2022/01/04 05:50:11;;;;;;;4.87;4.17;;;7.70;99.90;;;;;;5070517;28;20210;-75
2022/01/04 05:52:38;;;;;;;10.00;5.73;;;7.80;99.90;;;;;;5070474;28;20206;-76
2022/01/04 05:55:06;;;;;;;7.20;4.00;;;7.90;99.90;;;;;;5070167;28;20199;-76
2022/01/04 05:57:33;;;;;;;3.97;3.60;;;7.90;99.90;;;;;;5070136;28;20202;-76
2022/01/04 06:00:00;;;;;;;6.20;5.60;;;8.00;99.90;;;;;;5070072;28;20229;-76
2022/01/04 06:02:27;;;;;;;6.37;4.00;;;7.90;99.90;;;;;;5070219;28;20202;-76
2022/01/04 06:04:56;;;;;;;4.87;3.50;;;7.90;99.90;;;;;;5072407;28;20206;-75
2022/01/04 06:07:23;;;;;;;5.93;3.63;;;8.00;99.90;;;;;;5074808;28;20211;-78
2022/01/04 06:09:52;;;;;;;8.13;3.90;;;8.00;99.90;;;;;;5074093;28;20248;-77
2022/01/04 06:15:09;;;;;;;5.17;3.80;;;7.60;99.90;;;;;;5073841;28;20209;-76
2022/01/04 06:17:38;;;;;;;4.70;3.63;;;7.80;99.90;;;;;;5073999;28;20263;-78
2022/01/04 06:20:08;;;;;;;6.47;4.03;;;8.20;1.00;;;;;;5074161;28;20242;-78
2022/01/04 06:22:36;;;;;;;8.00;3.90;;;8.10;1.00;;;;;;5073688;28;20202;-77
2022/01/04 06:25:05;;;;;;;5.07;3.77;;;8.30;1.00;;;;;;5074246;28;20206;-78
2022/01/04 06:27:32;;;;;;;6.47;4.07;;;8.20;1.00;;;;;;5073738;28;20207;-78
2022/01/04 06:29:59;;;;;;;5.53;4.47;;;8.20;1.00;;;;;;5073926;28;20198;-76
2022/01/04 06:32:26;;;;;;;6.07;3.60;;;7.90;15.20;;;;;;5073701;28;20213;-76
2022/01/04 06:34:54;;;;;;;6.83;3.93;;;7.90;99.90;;;;;;5073815;28;20279;-75
2022/01/04 06:37:22;;;;;;;5.43;3.90;;;8.10;99.90;;;;;;5074141;28;20202;-78
2022/01/04 06:39:49;;;;;;;6.87;5.97;;;7.90;99.90;;;;;;5073609;28;20794;-77
2022/01/04 06:42:16;;;;;;;6.57;5.80;;;8.10;99.90;;;;;;5073884;28;20264;-76
2022/01/04 06:44:44;;;;;;;6.20;4.37;;;8.10;99.90;;;;;;5073092;28;20218;-77
2022/01/04 06:47:11;;;;;;;7.47;4.33;;;8.10;99.90;;;;;;5073653;28;20288;-77
2022/01/04 06:49:39;;;;;;;7.00;5.10;;;8.00;99.90;;;;;;5073248;28;20633;-76
2022/01/04 06:52:06;;;;;;;9.67;5.17;;;7.80;99.90;;;;;;5073519;28;20206;-76
2022/01/04 06:54:35;;;;;;;5.67;5.07;;;7.90;99.90;;;;;;5076960;28;20213;-78
2022/01/04 06:57:03;;;;;;;7.77;6.03;;;7.90;99.90;;;;;;5083897;28;20680;-76
2022/01/04 06:59:29;;;;;;;7.07;5.00;;;7.80;99.90;;;;;;5082389;28;20652;-75
2022/01/04 07:01:56;;;;;;;8.97;5.13;;;7.90;1.00;;;;;;5089684;28;20343;-77
2022/01/04 07:04:23;;;;;;;9.10;6.57;;;8.20;99.90;;;;;;5073639;28;20264;-73
2022/01/04 07:06:50;;;;;;;9.40;6.40;;;8.10;99.90;;;;;;5073781;28;20206;-75
2022/01/04 07:09:17;;;;;;;8.90;6.27;;;8.10;99.90;;;;;;5073245;28;20206;-74
2022/01/04 07:11:46;;;;;;;10.93;7.37;;;8.00;99.90;;;;;;5073022;28;20256;-74
2022/01/04 07:14:13;;;;;;;13.17;7.93;;;8.20;1.00;;;;;;5073014;28;20728;-73
2022/01/04 07:16:40;;;;;;;12.53;9.20;;;8.30;1.00;;;;;;5084254;28;20206;-73
2022/01/04 07:19:07;;;;;;;16.47;10.10;;;8.60;1.00;;;;;;5077825;28;20206;-72
2022/01/04 07:21:35;;;;;;;17.00;10.50;;;8.40;99.90;;;;;;5084506;28;20205;-73
2022/01/04 07:24:02;;;;;;;18.50;11.90;;;8.60;1.00;;;;;;5091095;28;20225;-74
2022/01/04 07:26:29;;;;;;;18.63;11.60;;;8.50;1.00;;;;;;5082352;28;20201;-74
2022/01/04 07:28:57;;;;;;;21.40;12.90;;;8.60;1.00;;;;;;5084858;28;20213;-74
2022/01/04 07:31:24;;;;;;;20.27;12.70;;;8.60;1.00;;;;;;5088866;28;20754;-74
2022/01/04 07:33:51;;;;;;;16.20;13.00;;;8.50;1.00;;;;;;5093233;28;20205;-74
2022/01/04 07:36:19;;;;;;;25.77;15.00;;;8.50;1.00;;;;;;5092507;28;20201;-74
2022/01/04 07:38:46;;;;;;;21.53;14.63;;;8.50;1.00;;;;;;5092433;28;20641;-74
2022/01/04 07:41:13;;;;;;;18.77;13.13;;;8.60;1.00;;;;;;5078955;28;20721;-74
2022/01/04 07:43:40;;;;;;;22.63;14.40;;;8.50;1.00;;;;;;5072542;28;20275;-74
2022/01/04 07:46:09;;;;;;;23.37;13.67;;;8.50;1.00;;;;;;5072218;28;20666;-74
2022/01/04 07:48:36;;;;;;;25.73;14.97;;;8.50;1.00;;;;;;5071861;28;20218;-73
2022/01/04 07:51:03;;;;;;;27.23;16.13;;;8.40;1.00;;;;;;5075734;28;20202;-73
2022/01/04 07:53:30;;;;;;;22.97;16.17;;;8.50;1.00;;;;;;5089208;28;20201;-73
2022/01/04 07:55:58;;;;;;;25.80;16.10;;;8.50;1.00;;;;;;5081463;28;20275;-73
2022/01/04 07:58:25;;;;;;;27.40;16.13;;;8.40;1.00;;;;;;5071666;28;20206;-73
2022/01/04 08:00:52;;;;;;;24.03;15.57;;;8.50;1.00;;;;;;5077159;28;20590;-74
2022/01/04 08:03:21;;;;;;;22.37;14.47;;;8.60;1.00;;;;;;5073556;28;20214;-73
2022/01/04 08:05:48;;;;;;;29.47;17.07;;;8.80;1.00;;;;;;5073798;28;20637;-74
2022/01/04 08:08:15;;;;;;;29.27;18.37;;;8.80;1.00;;;;;;5080456;28;20251;-72
2022/01/04 08:10:44;;;;;;;22.83;14.60;;;8.90;1.00;;;;;;5091625;28;20210;-71
2022/01/04 08:13:11;;;;;;;29.43;17.67;;;8.90;1.00;;;;;;5091731;28;20209;-71
2022/01/04 08:15:38;;;;;;;24.20;16.90;;;8.90;1.00;;;;;;5091666;28;20282;-71
2022/01/04 08:18:05;;;;;;;23.93;15.93;;;8.90;1.00;;;;;;5087470;28;20264;-72
2022/01/04 08:20:33;;;;;;;28.77;14.80;;;9.00;1.00;;;;;;5086356;28;20225;-73
2022/01/04 08:23:02;;;;;;;26.57;15.17;;;9.10;99.90;;;;;;5078880;28;20719;-72
2022/01/04 08:25:30;;;;;;;29.03;16.43;;;9.10;99.90;;;;;;5078374;28;20213;-72
2022/01/04 08:27:57;;;;;;;25.77;14.80;;;9.10;99.90;;;;;;5081240;28;20293;-73
2022/01/04 08:30:24;;;;;;;23.47;15.13;;;9.40;99.90;;;;;;5077121;28;20256;-73
2022/01/04 08:32:53;;;;;;;33.47;16.60;;;9.40;99.90;;;;;;5079236;28;20254;-73
2022/01/04 08:35:20;;;;;;;23.80;13.30;;;9.50;99.90;;;;;;5089995;28;20285;-73
2022/01/04 08:37:48;;;;;;;22.57;14.80;;;9.90;1.00;;;;;;5089643;28;20217;-72
2022/01/04 08:40:15;;;;;;;25.17;15.83;;;10.20;1.00;;;;;;5091497;28;20229;-73
2022/01/04 08:42:42;;;;;;;21.83;12.67;;;10.50;1.00;;;;;;5091486;28;20243;-72
2022/01/04 08:45:10;;;;;;;18.83;13.17;;;10.60;1.00;;;;;;5090677;28;20274;-73
2022/01/04 08:47:37;;;;;;;21.13;13.87;;;10.70;1.00;;;;;;5091247;28;20209;-73
2022/01/04 08:50:06;;;;;;;23.03;13.53;;;11.00;1.00;;;;;;5091335;28;20206;-72
2022/01/04 08:52:34;;;;;;;20.47;12.53;;;10.80;1.00;;;;;;5090097;28;20614;-73
2022/01/04 08:55:02;;;;;;;22.27;13.43;;;11.10;1.00;;;;;;5089871;28;20618;-72
2022/01/04 08:57:29;;;;;;;21.60;11.63;;;11.40;1.00;;;;;;5091130;28;20202;-73
2022/01/04 08:59:57;;;;;;;17.57;11.03;;;11.60;1.00;;;;;;5091288;28;20565;-73
2022/01/04 09:02:24;;;;;;;24.93;13.47;;;11.60;1.00;;;;;;5091217;28;20213;-72
2022/01/04 09:04:51;;;;;;;17.97;11.53;;;11.40;1.00;;;;;;5091468;28;20258;-72
2022/01/04 09:07:19;;;;;;;16.80;11.53;;;11.60;1.00;;;;;;5091265;28;20288;-72
2022/01/04 09:09:46;;;;;;;22.07;11.40;;;11.60;1.00;;;;;;5090544;28;20213;-72
2022/01/04 09:12:15;;;;;;;19.73;11.60;;;11.90;1.00;;;;;;5089288;28;20253;-72
2022/01/04 09:14:55;;;;;;;13.90;9.10;;;12.30;1.00;;;;;;5071457;28;20583;-72
2022/01/04 09:20:10;;;;;;;15.23;10.70;;;12.60;1.00;;;;;;5070812;28;20710;-72
2022/01/04 09:22:37;;;;;;;16.67;10.17;;;12.20;1.00;;;;;;5070686;28;20206;-72
2022/01/04 09:25:05;;;;;;;15.13;9.50;;;12.10;1.00;;;;;;5070512;28;20279;-72
2022/01/04 09:27:34;;;;;;;15.30;9.53;;;12.50;1.00;;;;;;5070406;28;20206;-72
2022/01/04 09:30:03;;;;;;;17.80;10.55;;;12.60;1.00;;;;;;5070551;28;20255;-72
2022/01/04 09:32:31;;;;;;;13.13;9.68;;;12.60;1.00;;;;;;5070543;28;20206;-72
2022/01/04 09:34:58;;;;;;;20.55;11.43;;;12.30;1.00;;;;;;5070814;28;20249;-72
2022/01/04 09:37:26;;;;;;;13.48;10.10;;;12.30;1.00;;;;;;5070129;28;20264;-72
2022/01/04 09:39:53;;;;;;;16.38;9.95;;;12.30;1.00;;;;;;5072471;28;20670;-71
2022/01/04 09:42:21;;;;;;;17.42;10.75;;;12.70;1.00;;;;;;5075062;28;20227;-72
2022/01/04 09:44:50;;;;;;;14.27;10.70;;;13.10;1.00;;;;;;5074544;28;20218;-72
2022/01/04 09:47:17;;;;;;;13.02;10.00;;;13.70;1.00;;;;;;5074638;28;20622;-72
2022/01/04 09:49:44;;;;;;;15.60;9.13;;;13.90;1.00;;;;;;5074421;28;20202;-72
2022/01/04 09:52:15;;;;;;;15.13;9.55;;;14.10;1.00;;;;;;5075577;28;20209;-72
2022/01/04 09:54:42;;;;;;;15.13;9.93;;;14.10;1.00;;;;;;5074031;28;20706;-72
2022/01/04 09:57:09;;;;;;;14.95;11.55;;;13.70;1.00;;;;;;5074514;28;20263;-72
2022/01/04 09:59:36;;;;;;;10.27;9.13;;;14.70;1.00;;;;;;5074427;28;20286;-72
2022/01/04 10:02:15;;;;;;;17.42;9.73;;;14.60;1.00;;;;;;5075435;28;20311;-71
2022/01/04 10:04:42;;;;;;;11.93;8.45;;;14.50;1.00;;;;;;5073781;28;20259;-72
2022/01/04 10:07:10;;;;;;;13.82;8.95;;;14.20;1.00;;;;;;5073893;28;20202;-72
2022/01/04 10:09:39;;;;;;;14.70;10.02;;;15.00;1.00;;;;;;5073797;28;20292;-72
2022/01/04 10:12:07;;;;;;;10.77;7.75;;;15.80;1.00;;;;;;5074185;28;20205;-72
2022/01/04 10:14:39;;;;;;;13.13;9.00;;;16.10;1.00;;;;;;5073393;28;20731;-72
2022/01/04 10:17:08;;;;;;;14.65;9.10;;;15.00;1.00;;;;;;5073906;28;20331;-72
2022/01/04 10:19:39;;;;;;;16.40;10.00;;;15.20;1.00;;;;;;5073409;28;20198;-72
2022/01/04 10:22:15;;;;;;;12.77;8.23;;;15.50;1.00;;;;;;5073382;28;20238;-72
2022/01/04 10:24:43;;;;;;;13.68;9.18;;;16.20;1.00;;;;;;5073360;28;20727;-72
2022/01/04 10:27:24;;;;;;;13.65;9.20;;;17.80;1.00;;;;;;5073980;28;20255;-73
2022/01/04 10:30:16;;;;;;;11.95;9.02;;;15.80;1.00;;;;;;5074284;28;20263;-73
2022/01/04 10:32:48;;;;;;;17.17;9.85;;;15.40;1.00;;;;;;5073493;28;20648;-73
2022/01/04 10:35:31;;;;;;;14.43;9.75;;;15.60;1.00;;;;;;5073589;28;20199;-72
2022/01/04 10:38:00;;;;;;;12.10;8.57;;;16.80;1.00;;;;;;5073778;28;20670;-72
2022/01/04 10:40:28;;;;;;;16.95;8.93;;;16.70;1.00;;;;;;5072898;28;20234;-73
2022/01/04 10:42:57;;;;;;;11.38;7.43;;;18.20;1.00;;;;;;5073524;28;20290;-71
2022/01/04 10:45:31;;;;;;;10.43;7.78;;;16.80;1.00;;;;;;5090321;28;20259;-72
2022/01/04 10:48:12;;;;;;;12.07;8.40;;;16.00;1.00;;;;;;5090981;28;20267;-71
2022/01/04 10:50:43;;;;;;;17.20;9.68;;;16.50;1.00;;;;;;5080764;28;20213;-72
2022/01/04 10:53:25;;;;;;;13.35;9.25;;;15.50;1.00;;;;;;5071449;28;20206;-72
2022/01/04 10:56:00;;;;;;;14.57;9.40;;;14.20;1.00;;;;;;5071511;28;20565;-72
2022/01/04 10:58:31;;;;;;;11.10;8.27;;;14.10;1.00;;;;;;5074830;28;20213;-72
2022/01/04 11:01:00;;;;;;;12.77;8.10;;;14.00;1.00;;;;;;5071949;28;20217;-72
2022/01/04 11:03:30;;;;;;;13.23;8.57;;;13.90;1.00;;;;;;5073170;28;20222;-73
2022/01/04 11:06:05;;;;;;;13.27;8.20;;;14.00;1.00;;;;;;5074244;28;20202;-72
2022/01/04 11:08:32;;;;;;;17.88;9.73;;;14.00;1.00;;;;;;5071458;28;20206;-72
2022/01/04 11:10:59;;;;;;;14.18;8.55;;;14.10;1.00;;;;;;5074258;28;20611;-72
2022/01/04 11:13:27;;;;;;;11.70;9.10;;;14.10;1.00;;;;;;5071580;28;20210;-72
2022/01/04 11:15:54;;;;;;;12.70;8.60;;;14.10;1.00;;;;;;5073118;28;20206;-72
2022/01/04 11:18:22;;;;;;;12.65;8.63;;;14.00;1.00;;;;;;5072934;28;20202;-72
2022/01/04 11:20:50;;;;;;;12.65;9.80;;;13.70;1.00;;;;;;5088038;28;20225;-72
2022/01/04 11:23:24;;;;;;;12.05;8.30;;;13.70;1.00;;;;;;5076985;28;20759;-72
2022/01/04 11:25:52;;;;;;;16.70;8.98;;;13.80;1.00;;;;;;5073138;28;20206;-72
2022/01/04 11:28:19;;;;;;;12.75;8.77;;;13.90;1.00;;;;;;5083545;28;20270;-72
2022/01/04 11:31:17;;;;;;;14.35;8.60;;;13.70;1.00;;;;;;5092583;28;20619;-72
2022/01/04 11:33:57;;;;;;;12.23;8.27;;;13.80;1.00;;;;;;5075425;28;20217;-72
2022/01/04 11:36:27;;;;;;;10.38;8.00;;;13.80;1.00;;;;;;5075267;28;20209;-73
2022/01/04 11:38:55;;;;;;;14.65;9.52;;;14.00;1.00;;;;;;5075982;28;20252;-72
2022/01/04 11:41:25;;;;;;;13.43;8.30;;;14.10;1.00;;;;;;5072802;28;20230;-72
2022/01/04 11:43:52;;;;;;;16.30;9.48;;;14.10;1.00;;;;;;5072964;28;20623;-72
2022/01/04 11:46:36;;;;;;;17.33;8.75;;;13.90;1.00;;;;;;5072925;28;20252;-72
2022/01/04 11:49:11;;;;;;;13.68;9.02;;;13.70;1.00;;;;;;5072150;28;20738;-72
2022/01/04 11:51:43;;;;;;;12.00;9.00;;;13.60;1.00;;;;;;5082864;28;20754;-72
2022/01/04 11:54:23;;;;;;;13.65;8.68;;;13.50;1.00;;;;;;5092535;28;20202;-72
2022/01/04 11:56:53;;;;;;;9.98;8.02;;;13.50;1.00;;;;;;5092391;28;20206;-72
2022/01/04 11:59:25;;;;;;;17.23;9.18;;;13.50;1.00;;;;;;5092870;28;20266;-72
2022/01/04 12:01:53;;;;;;;14.57;8.45;;;13.40;1.00;;;;;;5089659;28;20233;-72
2022/01/04 12:04:49;;;;;;;12.98;8.65;;;13.60;1.00;;;;;;5080762;28;20730;-72
2022/01/04 12:07:45;;;;;;;13.38;8.85;;;13.70;1.00;;;;;;5067194;28;20201;-72
2022/01/04 12:10:41;;;;;;;18.63;10.57;;;13.80;1.00;;;;;;5072103;28;20377;-72
2022/01/04 12:13:11;;;;;;;13.25;8.45;;;13.60;1.00;;;;;;5071840;28;20297;-72
2022/01/04 12:16:05;;;;;;;11.23;8.30;;;13.70;1.00;;;;;;5072132;28;20206;-72
2022/01/04 12:19:00;;;;;;;10.43;8.35;;;13.70;1.00;;;;;;5078465;28;20213;-72
2022/01/04 12:21:32;;;;;;;15.43;8.77;;;13.60;1.00;;;;;;5088639;28;20280;-72
2022/01/04 12:24:00;;;;;;;16.15;9.18;;;13.50;1.00;;;;;;5090249;28;20209;-72
2022/01/04 12:26:32;;;;;;;14.88;8.35;;;13.60;1.00;;;;;;5091579;28;20209;-74
2022/01/04 12:29:33;;;;;;;12.32;7.47;;;13.70;1.00;;;;;;5083612;28;20206;-72
2022/01/04 12:32:08;;;;;;;12.93;8.88;;;13.70;1.00;;;;;;5076235;28;20237;-72
2022/01/04 12:34:41;;;;;;;14.60;8.38;;;13.80;1.00;;;;;;5071109;28;20232;-72
2022/01/04 12:37:18;;;;;;;11.52;8.05;;;13.90;1.00;;;;;;5084403;28;20225;-72
2022/01/04 12:39:46;;;;;;;14.85;8.90;;;14.10;1.00;;;;;;5074107;28;20210;-72
2022/01/04 12:42:16;;;;;;;20.17;9.13;;;14.30;1.00;;;;;;5073138;28;20237;-71
2022/01/04 12:44:43;;;;;;;11.65;8.32;;;14.30;1.00;;;;;;5078993;28;20300;-72
2022/01/04 12:47:10;;;;;;;10.90;7.25;;;14.40;1.00;;;;;;5079680;28;20202;-72
2022/01/04 12:49:39;;;;;;;11.73;6.88;;;14.30;1.00;;;;;;5090825;28;20209;-72
2022/01/04 12:52:08;;;;;;;12.20;7.70;;;14.30;1.00;;;;;;5088849;28;20218;-72
2022/01/04 12:54:37;;;;;;;10.05;7.15;;;14.30;1.00;;;;;;5088306;28;20229;-73
2022/01/04 12:57:06;;;;;;;11.07;7.45;;;14.40;1.00;;;;;;5090840;28;20201;-72
2022/01/04 12:59:37;;;;;;;14.30;7.50;;;14.40;1.00;;;;;;5075582;28;20210;-72
2022/01/04 13:02:11;;;;;;;12.20;8.70;;;14.30;1.00;;;;;;5078769;28;20313;-72
2022/01/04 13:04:41;;;;;;;10.45;8.15;;;14.30;1.00;;;;;;5086402;28;20285;-72